Time;durP1;ratioP1;P1;durP2;ratioP2;P2;SDS_P1;SDS_P2;PMS_P1;PMS_P2;Temp;Humidity;BMP_temperature;BMP_pressure;BME280_temperature;BME280_humidity;BME280_pressure;Samples;Min_cycle;Max_cycle;Signal;HPM_P1;HPM_P2
2022/11/08 00:02:32;;;;;;;35.87;29.87;;;;;;;11.78;68.89;95367.13;5049846;28;20239;-66
2022/11/08 00:15:59;;;;;;;34.40;30.70;;;;;;;11.70;69.27;95367.06;5051448;28;20192;-66
2022/11/08 00:18:25;;;;;;;35.57;31.73;;;;;;;11.61;69.62;95360.88;5033965;28;20190;-66
2022/11/08 00:20:50;;;;;;;35.50;31.33;;;;;;;11.58;69.88;95365.63;5035893;28;20189;-66
2022/11/08 00:23:15;;;;;;;33.58;29.20;;;;;;;11.60;70.02;95366.28;5034980;28;20201;-66
2022/11/08 00:25:41;;;;;;;35.80;29.08;;;;;;;11.59;69.85;95359.38;5035709;28;20251;-66
2022/11/08 00:28:06;;;;;;;32.65;28.98;;;;;;;11.55;69.91;95365.94;5034611;28;20268;-67
2022/11/08 00:30:32;;;;;;;35.85;30.10;;;;;;;11.51;70.29;95361.94;5037440;28;20276;-67
2022/11/08 00:32:57;;;;;;;35.15;29.95;;;;;;;11.52;69.96;95359.16;5035930;28;20278;-67
2022/11/08 00:35:23;;;;;;;35.40;30.58;;;;;;;11.50;70.16;95355.03;5047431;28;20285;-67
2022/11/08 00:37:48;;;;;;;36.72;30.27;;;;;;;11.63;69.75;95358.94;5034178;28;20254;-65
2022/11/08 00:40:13;;;;;;;35.80;29.63;;;;;;;11.80;68.97;95359.09;5033807;28;20470;-67
2022/11/08 00:42:39;;;;;;;35.75;30.20;;;;;;;11.71;69.05;95360.81;5033351;28;20202;-67
2022/11/08 00:45:05;;;;;;;35.80;30.55;;;;;;;11.67;69.36;95354.19;5037390;28;20277;-67
2022/11/08 00:47:30;;;;;;;36.47;32.00;;;;;;;11.71;69.25;95358.19;5033818;28;20268;-67
2022/11/08 00:49:56;;;;;;;33.13;29.63;;;;;;;11.63;69.42;95358.13;5037115;28;20284;-67
2022/11/08 00:52:21;;;;;;;36.20;32.38;;;;;;;11.58;69.48;95355.09;5040544;28;20191;-67
2022/11/08 00:54:46;;;;;;;40.80;34.67;;;;;;;11.58;69.62;95358.56;5035890;28;20235;-68
2022/11/08 00:57:12;;;;;;;39.60;35.27;;;;;;;11.65;69.05;95356.13;5039189;28;20193;-67
2022/11/08 00:59:37;;;;;;;41.23;35.90;;;;;;;11.67;68.76;95357.66;5036676;28;20280;-67
2022/11/08 01:02:03;;;;;;;41.30;34.83;;;;;;;11.64;68.81;95354.50;5038867;28;20193;-68
2022/11/08 01:04:29;;;;;;;41.60;34.65;;;;;;;11.55;68.97;95358.03;5032947;28;20709;-67
2022/11/08 01:06:54;;;;;;;39.65;34.03;;;;;;;11.53;69.22;95355.53;5032691;28;20347;-68
2022/11/08 01:09:20;;;;;;;43.33;35.85;;;;;;;11.38;69.89;95357.84;5032151;28;20253;-67
2022/11/08 01:11:46;;;;;;;39.75;34.05;;;;;;;11.30;70.39;95351.66;5032775;28;20185;-67
2022/11/08 01:14:13;;;;;;;37.75;32.15;;;;;;;11.33;70.36;95360.09;5032575;28;20197;-67
2022/11/08 01:16:39;;;;;;;41.97;34.88;;;;;;;11.36;70.17;95354.56;5031419;28;20225;-67
2022/11/08 01:19:05;;;;;;;38.80;32.60;;;;;;;11.41;70.01;95354.94;5031476;28;20340;-67
2022/11/08 01:21:30;;;;;;;42.35;34.45;;;;;;;11.46;69.97;95357.09;5033349;28;20697;-67
2022/11/08 01:23:56;;;;;;;40.83;36.40;;;;;;;11.44;69.87;95354.63;5032798;28;20213;-68
2022/11/08 01:26:27;;;;;;;43.08;35.40;;;;;;;11.53;69.58;95354.72;5032082;28;20195;-68
2022/11/08 01:28:53;;;;;;;40.75;34.00;;;;;;;11.46;69.94;95352.66;5031995;28;20186;-67
2022/11/08 01:31:22;;;;;;;38.05;34.03;;;;;;;11.51;69.64;95359.28;5031942;28;20636;-68
2022/11/08 01:33:48;;;;;;;40.33;34.40;;;;;;;11.50;69.64;95349.75;5029520;28;20273;-68
2022/11/08 01:36:16;;;;;;;39.55;34.58;;;;;;;11.61;69.37;95357.44;5031172;28;20337;-66
2022/11/08 01:38:41;;;;;;;38.95;34.70;;;;;;;11.66;68.86;95347.28;5031857;28;20577;-66
2022/11/08 01:41:10;;;;;;;39.75;34.90;;;;;;;11.54;69.19;95346.66;5022360;28;20190;-66
2022/11/08 01:43:44;;;;;;;39.58;34.38;;;;;;;11.59;69.57;95357.56;5029914;28;20210;-66
2022/11/08 01:46:18;;;;;;;42.80;34.33;;;;;;;11.54;69.35;95357.19;5047661;28;20181;-67
2022/11/08 01:48:50;;;;;;;40.17;35.83;;;;;;;11.66;69.05;95353.38;5026178;28;20198;-67
2022/11/08 01:51:22;;;;;;;41.17;35.10;;;;;;;11.68;68.92;95353.19;5030168;28;20261;-68
2022/11/08 01:53:49;;;;;;;40.03;35.10;;;;;;;11.60;69.13;95353.97;5031239;28;20185;-68
2022/11/08 01:56:15;;;;;;;51.55;35.95;;;;;;;11.68;68.81;95350.56;5032238;28;20194;-68
2022/11/08 01:58:44;;;;;;;40.47;34.05;;;;;;;11.66;68.88;95357.81;5046028;28;20186;-68
2022/11/08 02:01:11;;;;;;;43.15;34.30;;;;;;;11.63;68.97;95350.22;5031149;28;20186;-67
2022/11/08 02:03:38;;;;;;;41.65;35.45;;;;;;;11.50;69.45;95349.75;5031499;28;20320;-68
2022/11/08 02:06:04;;;;;;;39.17;34.88;;;;;;;11.52;69.11;95347.78;5032608;28;20218;-68
2022/11/08 02:08:38;;;;;;;40.08;35.03;;;;;;;11.62;69.32;95364.34;5030791;28;20193;-67
2022/11/08 02:11:05;;;;;;;42.40;35.93;;;;;;;11.54;69.41;95362.44;5030651;28;20190;-67
2022/11/08 02:13:34;;;;;;;40.78;35.20;;;;;;;11.43;69.57;95366.13;5014769;28;20280;-68
2022/11/08 02:16:00;;;;;;;42.70;35.03;;;;;;;11.38;69.71;95360.47;5032074;28;20707;-66
2022/11/08 02:18:29;;;;;;;43.03;35.27;;;;;;;11.33;70.05;95354.81;5032284;28;20281;-67
2022/11/08 02:21:13;;;;;;;39.55;34.35;;;;;;;11.43;69.82;95365.31;5031323;28;20240;-68
2022/11/08 02:23:50;;;;;;;45.37;35.10;;;;;;;11.51;69.61;95359.28;5032116;28;20217;-67
2022/11/08 02:26:18;;;;;;;39.95;34.92;;;;;;;11.28;70.55;95359.72;5031441;28;20190;-68
2022/11/08 02:28:46;;;;;;;41.88;34.85;;;;;;;11.46;69.95;95355.28;5032399;28;20894;-67
2022/11/08 02:31:14;;;;;;;39.23;34.97;;;;;;;11.47;70.12;95354.34;5032130;28;20197;-68
2022/11/08 02:33:40;;;;;;;37.60;33.60;;;;;;;11.55;69.73;95363.31;5047926;28;20190;-68
2022/11/08 02:36:08;;;;;;;40.13;34.70;;;;;;;11.56;69.68;95371.03;5031901;28;20646;-68
2022/11/08 02:38:39;;;;;;;39.78;32.83;;;;;;;11.55;69.86;95361.50;5031962;28;20194;-68
2022/11/08 02:41:05;;;;;;;43.92;35.72;;;;;;;11.52;69.56;95363.56;5031414;28;20202;-68
2022/11/08 02:43:30;;;;;;;40.35;35.90;;;;;;;11.44;70.22;95366.94;5030116;28;20203;-69
2022/11/08 02:45:57;;;;;;;41.08;34.10;;;;;;;11.51;69.99;95362.75;5032269;28;20637;-69
2022/11/08 02:48:23;;;;;;;38.00;33.92;;;;;;;11.40;70.14;95355.06;5031316;28;20200;-68
2022/11/08 02:50:49;;;;;;;39.20;34.17;;;;;;;11.44;70.20;95356.41;5032021;28;20628;-67
2022/11/08 02:53:14;;;;;;;40.90;34.63;;;;;;;11.48;70.19;95350.72;5031364;28;20190;-67
2022/11/08 02:55:40;;;;;;;40.83;33.50;;;;;;;11.35;70.45;95350.25;5031600;28;20251;-68
2022/11/08 02:58:05;;;;;;;41.30;33.30;;;;;;;11.38;70.29;95349.13;5030961;28;20239;-69
2022/11/08 03:00:31;;;;;;;38.75;34.30;;;;;;;11.37;70.47;95347.47;5031241;28;20247;-69
2022/11/08 03:02:57;;;;;;;38.30;34.20;;;;;;;11.46;70.54;95359.72;5030832;28;20210;-67
2022/11/08 03:05:25;;;;;;;37.97;32.28;;;;;;;11.44;70.47;95356.41;5047335;28;20347;-67
2022/11/08 03:07:50;;;;;;;39.78;34.35;;;;;;;11.51;70.01;95351.41;5036217;28;20557;-66
2022/11/08 03:10:16;;;;;;;39.70;34.42;;;;;;;11.58;69.77;95357.72;5043070;28;20193;-66
2022/11/08 03:12:42;;;;;;;37.90;33.22;;;;;;;11.53;69.86;95359.97;5036612;28;20185;-66
2022/11/08 03:15:09;;;;;;;43.45;34.53;;;;;;;11.48;70.25;95361.25;5033793;28;20189;-66
2022/11/08 03:17:35;;;;;;;39.10;33.85;;;;;;;11.55;70.13;95360.66;5037349;28;20297;-66
2022/11/08 03:20:01;;;;;;;41.33;34.08;;;;;;;11.48;70.40;95358.59;5041515;28;20708;-66
2022/11/08 03:22:26;;;;;;;39.40;33.78;;;;;;;11.47;70.50;95364.88;5032011;28;20201;-66
2022/11/08 03:24:52;;;;;;;37.58;33.58;;;;;;;11.43;70.51;95360.84;5038742;28;20221;-67
2022/11/08 03:27:18;;;;;;;36.97;32.95;;;;;;;11.56;70.12;95360.50;5055369;28;20942;-67
2022/11/08 03:29:47;;;;;;;43.20;34.85;;;;;;;11.58;70.04;95358.56;5036343;28;20723;-67
2022/11/08 03:32:13;;;;;;;42.08;35.10;;;;;;;11.52;70.16;95363.56;5033700;28;20182;-66
2022/11/08 03:34:39;;;;;;;39.28;34.45;;;;;;;11.55;70.16;95363.31;5034887;28;20570;-66
2022/11/08 03:37:06;;;;;;;43.30;34.15;;;;;;;11.47;70.52;95369.31;5036292;28;20188;-66
2022/11/08 03:39:31;;;;;;;38.53;33.92;;;;;;;11.46;70.66;95363.19;5033553;28;20602;-67
2022/11/08 03:42:01;;;;;;;38.65;33.08;;;;;;;11.45;70.98;95373.88;5041247;28;20190;-67
2022/11/08 03:44:27;;;;;;;39.78;34.42;;;;;;;11.57;71.54;95377.13;5037558;28;20194;-68
2022/11/08 03:46:53;;;;;;;44.42;35.90;;;;;;;11.46;71.43;95368.47;5038985;28;20207;-70
2022/11/08 03:49:18;;;;;;;41.15;35.72;;;;;;;11.50;71.89;95368.19;5037211;28;20197;-68
2022/11/08 03:51:43;;;;;;;39.00;34.17;;;;;;;11.45;72.73;95368.63;5034416;28;20573;-67
2022/11/08 03:54:09;;;;;;;39.63;34.45;;;;;;;11.47;72.73;95361.41;5042504;28;20207;-67
2022/11/08 03:56:34;;;;;;;41.00;35.10;;;;;;;11.51;72.52;95368.03;5035802;28;20196;-69
2022/11/08 03:59:00;;;;;;;40.25;34.40;;;;;;;11.43;72.89;95365.31;5034213;28;20193;-68
2022/11/08 04:01:25;;;;;;;41.40;34.65;;;;;;;11.67;71.83;95370.81;5034398;28;20186;-69
2022/11/08 04:03:51;;;;;;;40.47;35.60;;;;;;;11.59;71.68;95375.19;5030848;28;20233;-69
2022/11/08 04:06:16;;;;;;;39.22;34.70;;;;;;;11.65;71.39;95374.56;5046635;28;20217;-67
2022/11/08 04:08:41;;;;;;;40.63;34.15;;;;;;;11.63;71.82;95377.38;5029960;28;20189;-68
2022/11/08 04:16:35;;;;;;;45.05;37.22;;;;;;;11.37;73.83;95369.34;5030877;28;20193;-66
2022/11/08 04:21:46;;;;;;;43.95;35.63;;;;;;;11.38;73.82;95360.47;5030952;28;20227;-68
2022/11/08 04:24:12;;;;;;;40.78;36.38;;;;;;;11.36;74.49;95358.97;5030099;28;20213;-68
2022/11/08 04:26:40;;;;;;;44.45;37.65;;;;;;;11.34;75.03;95348.59;5028483;28;20206;-66
2022/11/08 04:29:07;;;;;;;41.95;37.28;;;;;;;11.36;75.12;95356.34;5042119;28;20247;-68
2022/11/08 04:31:33;;;;;;;43.10;36.60;;;;;;;11.44;74.80;95353.78;5032083;28;20216;-67
2022/11/08 04:33:58;;;;;;;40.88;36.20;;;;;;;11.38;75.08;95352.56;5033993;28;20186;-67
2022/11/08 04:36:24;;;;;;;42.72;37.70;;;;;;;11.43;75.14;95355.59;5033663;28;20201;-66
2022/11/08 04:38:50;;;;;;;43.20;37.25;;;;;;;11.43;75.07;95358.22;5050335;28;20233;-66
2022/11/08 04:41:19;;;;;;;47.00;38.03;;;;;;;11.46;74.91;95359.72;5034035;28;20188;-66
2022/11/08 04:43:44;;;;;;;42.67;38.03;;;;;;;11.45;74.96;95358.91;5029792;28;20215;-66
2022/11/08 04:46:15;;;;;;;43.17;38.05;;;;;;;11.44;74.36;95359.91;5033347;28;20190;-66
2022/11/08 04:48:42;;;;;;;41.28;36.83;;;;;;;11.43;74.96;95357.41;5033328;28;20186;-66
2022/11/08 04:51:13;;;;;;;45.90;38.30;;;;;;;11.36;74.85;95359.81;5032146;28;20202;-66
2022/11/08 04:53:39;;;;;;;41.65;37.13;;;;;;;11.44;74.94;95367.81;5031418;28;20194;-66
2022/11/08 04:56:20;;;;;;;43.72;38.88;;;;;;;11.42;75.19;95364.47;5048537;28;20186;-66
2022/11/08 04:58:51;;;;;;;44.35;36.92;;;;;;;11.55;74.75;95369.41;5031191;28;20600;-66
2022/11/08 05:01:21;;;;;;;43.97;37.25;;;;;;;11.44;74.65;95378.34;5033743;28;20237;-66
2022/11/08 05:03:48;;;;;;;41.60;36.72;;;;;;;11.10;76.14;95382.53;5033481;28;21279;-66
2022/11/08 05:06:18;;;;;;;44.42;38.22;;;;;;;11.07;76.63;95388.09;5035957;28;20767;-66
2022/11/08 05:08:44;;;;;;;43.05;37.65;;;;;;;11.13;76.77;95384.88;5034325;28;20228;-68
2022/11/08 05:11:12;;;;;;;41.85;37.38;;;;;;;11.16;76.54;95382.78;5036855;28;20296;-66
2022/11/08 05:13:38;;;;;;;43.25;38.38;;;;;;;11.26;76.67;95380.91;5034835;28;20182;-68
2022/11/08 05:16:07;;;;;;;44.95;38.47;;;;;;;11.40;76.32;95376.13;5037364;28;20198;-66
2022/11/08 05:18:33;;;;;;;43.60;37.47;;;;;;;11.52;75.96;95384.63;5040735;28;20249;-68
2022/11/08 05:23:45;;;;;;;45.93;38.57;;;;;;;11.43;75.47;95371.38;5035709;28;20297;-67
2022/11/08 05:26:11;;;;;;;42.57;37.97;;;;;;;11.47;75.94;95374.56;5038047;28;20539;-69
2022/11/08 05:28:36;;;;;;;44.17;38.25;;;;;;;11.41;75.65;95362.84;5032549;28;20250;-67
2022/11/08 05:31:02;;;;;;;44.38;39.60;;;;;;;11.54;75.64;95378.25;5033859;28;20190;-66
2022/11/08 05:33:28;;;;;;;44.33;38.35;;;;;;;11.54;75.28;95378.25;5038625;28;20217;-66
2022/11/08 05:35:54;;;;;;;42.78;38.15;;;;;;;11.48;75.64;95379.69;5033409;28;20198;-66
2022/11/08 05:38:20;;;;;;;43.80;38.80;;;;;;;11.40;75.86;95386.66;5036107;28;20209;-67
2022/11/08 05:40:46;;;;;;;44.72;39.03;;;;;;;11.44;75.61;95369.56;5034049;28;20270;-67
2022/11/08 05:43:11;;;;;;;44.38;39.67;;;;;;;11.52;75.60;95374.09;5031067;28;20300;-67
2022/11/08 05:45:37;;;;;;;43.65;38.95;;;;;;;11.61;75.67;95383.78;5035064;28;20634;-67
2022/11/08 05:48:03;;;;;;;45.42;39.22;;;;;;;11.65;75.26;95382.47;5035410;28;20197;-68
2022/11/08 05:53:24;;;;;;;47.25;40.97;;;;;;;11.64;75.17;95384.28;5032148;28;20831;-67
2022/11/08 05:55:49;;;;;;;48.47;39.33;;;;;;;11.58;75.72;95386.72;5035338;28;20277;-67
2022/11/08 05:58:15;;;;;;;51.88;38.33;;;;;;;11.56;75.97;95392.09;5031657;28;20677;-65
2022/11/08 06:00:41;;;;;;;45.90;39.30;;;;;;;11.61;75.35;95394.31;5033120;28;20255;-66
2022/11/08 06:03:08;;;;;;;46.50;39.20;;;;;;;11.85;74.53;95402.44;5031517;28;20202;-67
2022/11/08 06:05:34;;;;;;;44.25;39.45;;;;;;;11.74;74.58;95401.84;5035055;28;20225;-67
2022/11/08 06:07:59;;;;;;;53.90;43.07;;;;;;;11.51;75.92;95404.06;5035950;28;20189;-67
2022/11/08 06:10:25;;;;;;;48.30;41.53;;;;;;;11.61;75.48;95400.41;5035601;28;20214;-67
2022/11/08 06:12:51;;;;;;;51.25;44.08;;;;;;;11.77;75.20;95420.00;5050922;28;20193;-68
2022/11/08 06:15:20;;;;;;;54.72;44.88;;;;;;;11.81;74.87;95408.97;5033979;28;20209;-66
2022/11/08 06:17:46;;;;;;;51.08;43.15;;;;;;;11.85;74.92;95413.00;5031744;28;20700;-65
2022/11/08 06:20:11;;;;;;;48.30;42.47;;;;;;;11.91;74.22;95427.41;5029356;28;20192;-66
2022/11/08 06:22:37;;;;;;;48.00;42.60;;;;;;;12.03;74.02;95423.56;5035264;28;20209;-66
2022/11/08 06:25:07;;;;;;;50.40;42.08;;;;;;;12.04;73.52;95424.41;5036161;28;20182;-66
2022/11/08 06:27:32;;;;;;;51.15;42.40;;;;;;;11.94;73.86;95426.28;5036420;28;20254;-66
2022/11/08 06:30:00;;;;;;;44.38;39.58;;;;;;;12.04;74.17;95434.94;5034447;28;20193;-67
2022/11/08 06:32:29;;;;;;;46.22;37.90;;;;;;;12.07;73.70;95437.28;5033376;28;20185;-68
2022/11/08 06:34:54;;;;;;;45.23;39.13;;;;;;;12.05;73.75;95439.22;5036923;28;20276;-68
2022/11/08 06:37:23;;;;;;;45.30;37.42;;;;;;;11.98;74.11;95431.09;5035001;28;20280;-67
2022/11/08 06:39:48;;;;;;;43.40;36.65;;;;;;;11.98;74.42;95439.00;5050543;28;20185;-68
2022/11/08 06:42:14;;;;;;;39.38;34.65;;;;;;;12.12;73.97;95448.19;5035115;28;20556;-67
2022/11/08 06:44:39;;;;;;;40.17;34.37;;;;;;;12.09;74.01;95445.88;5034285;28;20197;-67
2022/11/08 06:47:05;;;;;;;35.25;31.48;;;;;;;12.10;73.90;95453.59;5036135;28;20185;-67
2022/11/08 06:49:30;;;;;;;37.10;32.92;;;;;;;12.23;73.44;95450.59;5032840;28;20190;-66
2022/11/08 06:51:56;;;;;;;38.85;33.28;;;;;;;12.21;73.32;95447.28;5034549;28;20619;-67
2022/11/08 06:54:22;;;;;;;46.50;33.17;;;;;;;12.31;72.99;95444.56;5034031;28;20533;-66
2022/11/08 06:57:01;;;;;;;36.20;30.93;;;;;;;12.29;72.91;95447.34;5033685;28;20221;-68
2022/11/08 06:59:27;;;;;;;36.20;30.25;;;;;;;12.29;72.76;95449.97;5033660;28;20193;-68
2022/11/08 07:01:53;;;;;;;35.17;31.33;;;;;;;12.40;72.36;95448.91;5033084;28;20265;-67
2022/11/08 07:04:19;;;;;;;36.88;31.20;;;;;;;12.41;72.41;95455.03;5030479;28;20705;-67
2022/11/08 07:06:44;;;;;;;34.90;30.55;;;;;;;12.34;72.55;95453.00;5030796;28;20205;-68
2022/11/08 07:09:09;;;;;;;35.22;30.67;;;;;;;12.34;72.85;95457.44;5029140;28;20217;-68
2022/11/08 07:11:35;;;;;;;32.90;29.27;;;;;;;12.43;72.45;95459.19;5029973;28;20663;-67
2022/11/08 07:14:00;;;;;;;36.22;30.45;;;;;;;12.36;72.43;95447.59;5023349;28;20186;-68
2022/11/08 07:16:26;;;;;;;34.50;30.73;;;;;;;12.41;72.57;95452.41;5029926;28;20205;-66
2022/11/08 07:18:52;;;;;;;34.25;30.65;;;;;;;12.53;72.31;95453.81;5031099;28;20185;-67
2022/11/08 07:21:17;;;;;;;32.92;29.42;;;;;;;12.53;71.65;95448.53;5029842;28;20982;-68
2022/11/08 07:23:43;;;;;;;33.17;29.52;;;;;;;12.48;71.71;95450.78;5029834;28;20268;-68
2022/11/08 07:26:09;;;;;;;34.58;30.92;;;;;;;12.48;72.05;95451.66;5045539;28;20182;-68
2022/11/08 07:28:34;;;;;;;33.83;30.23;;;;;;;12.58;71.82;95456.81;5030628;28;20773;-67
2022/11/08 07:31:02;;;;;;;33.45;29.90;;;;;;;12.60;71.47;95460.13;5041755;28;20198;-67
2022/11/08 07:33:28;;;;;;;32.85;29.08;;;;;;;12.63;71.79;95467.75;5029532;28;20178;-67
2022/11/08 07:35:55;;;;;;;35.65;31.95;;;;;;;12.55;71.93;95465.03;5030091;28;20194;-67
2022/11/08 07:38:21;;;;;;;33.13;29.60;;;;;;;12.58;71.95;95454.19;5030597;28;20193;-67
2022/11/08 07:40:46;;;;;;;34.67;30.30;;;;;;;12.79;70.76;95459.13;5030044;28;20676;-67
2022/11/08 07:43:12;;;;;;;31.30;28.00;;;;;;;12.77;70.64;95453.97;5029671;28;20218;-67
2022/11/08 07:51:25;;;;;;;33.33;29.10;;;;;;;12.85;70.08;95452.38;5030699;28;20205;-68
2022/11/08 07:53:50;;;;;;;32.05;28.55;;;;;;;13.00;69.64;95464.88;5030501;28;20236;-67
2022/11/08 07:56:16;;;;;;;37.38;29.73;;;;;;;13.00;69.81;95461.41;5030278;28;20668;-67
2022/11/08 07:58:41;;;;;;;33.30;27.38;;;;;;;13.03;69.43;95456.63;5029826;28;20186;-66
2022/11/08 08:01:07;;;;;;;30.83;27.52;;;;;;;12.99;69.57;95452.66;5028372;28;20196;-66
2022/11/08 08:03:32;;;;;;;33.80;28.65;;;;;;;12.99;69.77;95451.81;5028952;28;20230;-66
2022/11/08 08:05:58;;;;;;;32.95;28.77;;;;;;;12.99;69.88;95457.94;5034075;28;20197;-68
2022/11/08 08:08:23;;;;;;;32.45;29.02;;;;;;;13.03;69.45;95456.63;5036678;28;20197;-67
2022/11/08 08:10:49;;;;;;;35.95;29.80;;;;;;;13.01;69.56;95455.94;5035830;28;20208;-67
2022/11/08 08:13:15;;;;;;;31.58;28.27;;;;;;;13.06;69.57;95459.94;5036298;28;20184;-67
2022/11/08 08:15:40;;;;;;;33.97;29.13;;;;;;;13.06;69.58;95444.94;5038479;28;20181;-66
2022/11/08 08:18:07;;;;;;;33.83;30.40;;;;;;;13.08;69.46;95453.53;5033514;28;20272;-69
2022/11/08 08:20:34;;;;;;;34.65;31.05;;;;;;;13.11;69.11;95455.84;5033981;28;20189;-67
2022/11/08 08:23:00;;;;;;;35.90;30.90;;;;;;;13.03;69.73;95461.91;5033348;28;20221;-66
2022/11/08 08:25:27;;;;;;;33.75;30.10;;;;;;;13.17;69.21;95464.97;5041692;28;20276;-67
2022/11/08 08:27:54;;;;;;;34.45;30.85;;;;;;;13.25;68.89;95468.47;5036300;28;20587;-67
2022/11/08 08:30:21;;;;;;;35.53;31.13;;;;;;;13.31;68.78;95474.13;5033372;28;20205;-67
2022/11/08 08:32:48;;;;;;;36.08;31.17;;;;;;;13.23;68.76;95465.19;5030623;28;20182;-67
2022/11/08 08:35:13;;;;;;;33.88;30.48;;;;;;;13.20;68.78;95462.00;5034766;28;20534;-67
2022/11/08 08:37:39;;;;;;;36.20;30.65;;;;;;;13.21;68.92;95466.31;5038490;28;20231;-67
2022/11/08 08:40:06;;;;;;;34.17;30.38;;;;;;;13.34;68.99;95473.81;5033657;28;20193;-66
2022/11/08 08:42:32;;;;;;;34.53;31.10;;;;;;;13.27;69.11;95460.44;5032918;28;20201;-66
2022/11/08 08:44:58;;;;;;;34.58;30.83;;;;;;;13.40;68.61;95460.00;5033394;28;20196;-67
2022/11/08 08:47:23;;;;;;;33.00;29.08;;;;;;;13.42;68.22;95458.84;5039078;28;20194;-67
2022/11/08 08:49:49;;;;;;;32.42;28.65;;;;;;;13.45;68.16;95473.56;5036222;28;20247;-68
2022/11/08 08:52:14;;;;;;;31.92;27.58;;;;;;;13.41;68.54;95464.28;5035191;28;20245;-68
2022/11/08 08:54:39;;;;;;;33.58;27.83;;;;;;;13.50;68.27;95475.72;5041036;28;20185;-66
2022/11/08 08:57:05;;;;;;;33.05;28.63;;;;;;;13.51;67.94;95466.81;5036828;28;20209;-64
2022/11/08 08:59:30;;;;;;;30.42;26.67;;;;;;;13.56;67.79;95470.63;5032708;28;20196;-67
2022/11/08 09:01:58;;;;;;;32.20;27.08;;;;;;;13.50;68.06;95471.28;5033091;28;20288;-66
2022/11/08 09:04:23;;;;;;;32.08;27.08;;;;;;;13.55;68.37;95468.13;5029697;28;20705;-68
2022/11/08 09:06:49;;;;;;;30.20;27.17;;;;;;;13.56;68.45;95473.28;5029203;28;20225;-68
2022/11/08 09:09:14;;;;;;;30.90;27.60;;;;;;;13.66;67.97;95473.16;5045690;28;20650;-67
2022/11/08 09:11:39;;;;;;;29.83;26.75;;;;;;;13.56;68.22;95467.16;5046522;28;20209;-68
2022/11/08 09:14:05;;;;;;;30.05;26.73;;;;;;;13.64;68.05;95465.38;5043451;28;20183;-67
2022/11/08 09:16:30;;;;;;;29.25;26.20;;;;;;;13.70;67.83;95461.28;5025831;28;20224;-67
2022/11/08 09:18:56;;;;;;;33.65;28.95;;;;;;;13.72;67.94;95469.06;5033258;28;20325;-68
2022/11/08 09:21:21;;;;;;;30.45;27.08;;;;;;;13.73;68.09;95471.50;5049763;28;20187;-68
2022/11/08 09:23:47;;;;;;;29.33;26.15;;;;;;;13.70;68.20;95461.28;5033296;28;20271;-68
2022/11/08 09:26:12;;;;;;;29.10;25.48;;;;;;;13.74;68.03;95456.47;5032594;28;20178;-67
2022/11/08 09:28:37;;;;;;;30.48;27.27;;;;;;;13.84;67.69;95463.28;5049770;28;20190;-66
2022/11/08 09:31:06;;;;;;;28.73;25.67;;;;;;;13.96;67.17;95469.13;5032206;28;20281;-66
2022/11/08 09:33:32;;;;;;;28.65;25.48;;;;;;;13.98;66.90;95461.84;5032530;28;20261;-66
2022/11/08 09:35:59;;;;;;;26.42;23.70;;;;;;;14.11;66.22;95459.56;5032764;28;20206;-66
2022/11/08 09:38:25;;;;;;;29.20;26.08;;;;;;;14.24;65.49;95461.72;5033494;28;20600;-68
2022/11/08 09:40:50;;;;;;;27.92;24.95;;;;;;;14.19;65.58;95461.38;5033028;28;20681;-68
2022/11/08 09:43:54;;;;;;;27.77;23.88;;;;;;;14.28;65.02;95456.94;5033092;28;20354;-69
2022/11/08 09:46:36;;;;;;;29.75;24.48;;;;;;;14.22;65.03;95457.56;5022604;28;20221;-67
2022/11/08 09:49:04;;;;;;;26.30;23.27;;;;;;;14.28;64.96;95451.66;5029986;28;20217;-66
2022/11/08 09:51:33;;;;;;;26.90;23.45;;;;;;;14.34;64.66;95454.47;5032413;28;20186;-67
2022/11/08 09:54:02;;;;;;;26.77;23.55;;;;;;;14.43;64.29;95447.34;5030142;28;20189;-67
2022/11/08 09:56:31;;;;;;;26.40;23.70;;;;;;;14.55;63.68;95454.00;5031967;28;20321;-67
2022/11/08 09:59:24;;;;;;;27.30;24.10;;;;;;;14.57;63.24;95456.50;5033138;28;20213;-67
2022/11/08 10:01:49;;;;;;;28.85;24.77;;;;;;;14.68;62.87;95455.34;5025477;28;20249;-67
2022/11/08 10:04:19;;;;;;;27.95;23.40;;;;;;;14.64;62.98;95443.41;5032222;28;20234;-67
2022/11/08 10:07:03;;;;;;;25.65;23.08;;;;;;;14.64;62.62;95440.78;5031860;28;20217;-66
2022/11/08 10:09:39;;;;;;;26.17;23.38;;;;;;;14.71;62.88;95447.88;5031612;28;20186;-67
2022/11/08 10:12:15;;;;;;;28.75;24.17;;;;;;;14.71;62.64;95436.47;5032059;28;20273;-66
2022/11/08 10:14:52;;;;;;;27.35;24.00;;;;;;;14.89;61.99;95437.13;5031577;28;20193;-67
2022/11/08 10:17:57;;;;;;;28.38;25.35;;;;;;;14.93;61.78;95430.47;5047506;28;20680;-67
2022/11/08 10:20:23;;;;;;;28.70;24.38;;;;;;;14.93;61.58;95433.13;4977468;28;20215;-65
2022/11/08 10:23:06;;;;;;;28.63;25.20;;;;;;;15.08;61.12;95435.91;4972580;28;20632;-65
2022/11/08 10:25:37;;;;;;;27.55;24.65;;;;;;;15.17;60.18;95434.88;4975980;28;21261;-64
2022/11/08 10:28:06;;;;;;;27.67;24.77;;;;;;;15.18;60.30;95428.63;4990523;28;20207;-65
2022/11/08 10:30:35;;;;;;;27.88;24.33;;;;;;;15.15;60.23;95428.09;4974026;28;20199;-64
2022/11/08 10:33:01;;;;;;;26.38;23.55;;;;;;;15.31;59.85;95425.41;4972529;28;20191;-66
2022/11/08 10:35:56;;;;;;;27.65;23.25;;;;;;;15.48;59.54;95418.25;4973485;28;20883;-67
2022/11/08 10:38:32;;;;;;;27.73;23.98;;;;;;;15.57;59.25;95414.53;4972677;28;20245;-67
2022/11/08 10:41:11;;;;;;;26.75;23.73;;;;;;;15.66;58.66;95415.31;4972399;28;20531;-68
2022/11/08 10:43:43;;;;;;;26.10;23.27;;;;;;;15.71;58.49;95402.41;4970426;28;20223;-68
2022/11/08 10:46:36;;;;;;;27.17;24.33;;;;;;;15.73;58.38;95413.66;4971145;28;20628;-67
2022/11/08 10:49:32;;;;;;;28.00;23.88;;;;;;;15.77;57.88;95399.09;4967642;28;20290;-68
2022/11/08 10:52:00;;;;;;;25.52;22.83;;;;;;;15.76;58.06;95402.72;4988975;28;20199;-68
2022/11/08 10:54:41;;;;;;;24.75;21.85;;;;;;;15.78;57.52;95403.38;4974273;28;20180;-68
2022/11/08 10:57:09;;;;;;;24.98;22.38;;;;;;;15.74;57.72;95395.94;4994737;28;20267;-68
2022/11/08 10:59:35;;;;;;;28.98;24.80;;;;;;;15.81;57.53;95397.72;5029868;28;20213;-68
2022/11/08 11:02:00;;;;;;;27.02;24.40;;;;;;;15.73;57.35;95387.16;5030390;28;20183;-69
2022/11/08 11:04:31;;;;;;;26.02;23.42;;;;;;;15.78;57.89;95389.28;5029539;28;20241;-69
2022/11/08 11:07:01;;;;;;;26.20;22.35;;;;;;;15.92;57.35;95399.16;5028740;28;20187;-69
2022/11/08 11:09:27;;;;;;;26.08;23.33;;;;;;;16.04;56.91;95391.63;5029447;28;20269;-69
2022/11/08 11:12:05;;;;;;;28.02;23.35;;;;;;;15.98;56.85;95379.88;5029684;28;20214;-69
2022/11/08 11:14:30;;;;;;;22.42;20.02;;;;;;;15.99;55.54;95391.31;5046878;28;20205;-69
2022/11/08 11:17:01;;;;;;;22.45;20.02;;;;;;;16.03;54.75;95385.47;5028944;28;20530;-69
2022/11/08 11:19:28;;;;;;;22.50;20.13;;;;;;;16.02;54.43;95378.53;5028428;28;20654;-69
2022/11/08 11:22:05;;;;;;;22.17;19.98;;;;;;;16.03;53.76;95387.31;5029598;28;20182;-69
2022/11/08 11:24:32;;;;;;;23.58;19.90;;;;;;;15.94;54.31;95377.75;5046471;28;20264;-70
2022/11/08 11:27:04;;;;;;;21.55;19.38;;;;;;;15.87;54.14;95373.13;5044983;28;20182;-69
2022/11/08 11:29:37;;;;;;;19.75;17.70;;;;;;;15.89;53.66;95383.59;5029216;28;20217;-70
2022/11/08 11:32:32;;;;;;;20.83;18.65;;;;;;;15.80;53.33;95377.50;5030913;28;20182;-69
2022/11/08 11:35:09;;;;;;;19.92;17.95;;;;;;;15.75;53.35;95374.56;5030285;28;20190;-69
2022/11/08 11:37:45;;;;;;;20.42;18.20;;;;;;;15.76;53.62;95370.91;5044553;28;20281;-70
2022/11/08 11:40:13;;;;;;;22.10;19.15;;;;;;;15.70;54.06;95363.66;5029137;28;20193;-71
2022/11/08 11:43:01;;;;;;;21.45;19.25;;;;;;;15.75;54.27;95363.13;5030551;28;20217;-69
2022/11/08 11:45:37;;;;;;;22.25;19.77;;;;;;;15.86;54.34;95371.50;5023645;28;20196;-70
2022/11/08 11:48:14;;;;;;;21.25;18.70;;;;;;;15.56;55.19;95362.53;5045115;28;20709;-70
2022/11/08 11:50:44;;;;;;;21.08;18.85;;;;;;;15.57;54.62;95364.19;5044762;28;20182;-70
2022/11/08 11:53:35;;;;;;;21.30;18.55;;;;;;;15.50;54.56;95365.88;5029783;28;20178;-69